sensor_id;sensor_type;location;lat;lon;timestamp;P1;durP1;ratioP1;P2;durP2;ratioP2
74553;SDS011;63114;59.956;30.214;2022-09-28T00:01:50;11.75;;;7.72;;
74553;SDS011;63114;59.956;30.214;2022-09-28T00:04:16;11.30;;;8.30;;
74553;SDS011;63114;59.956;30.214;2022-09-28T00:06:42;12.90;;;8.68;;
74553;SDS011;63114;59.956;30.214;2022-09-28T00:09:08;14.00;;;8.73;;
74553;SDS011;63114;59.956;30.214;2022-09-28T00:11:34;12.60;;;7.95;;
74553;SDS011;63114;59.956;30.214;2022-09-28T00:14:00;13.82;;;8.45;;
74553;SDS011;63114;59.956;30.214;2022-09-28T00:16:36;13.38;;;7.88;;
74553;SDS011;63114;59.956;30.214;2022-09-28T00:19:06;13.90;;;7.97;;
74553;SDS011;63114;59.956;30.214;2022-09-28T00:21:34;19.10;;;8.13;;
74553;SDS011;63114;59.956;30.214;2022-09-28T00:24:02;13.30;;;7.65;;
74553;SDS011;63114;59.956;30.214;2022-09-28T00:31:44;12.77;;;6.78;;
74553;SDS011;63114;59.956;30.214;2022-09-28T00:34:10;14.88;;;7.50;;
74553;SDS011;63114;59.956;30.214;2022-09-28T00:36:36;13.75;;;8.50;;
74553;SDS011;63114;59.956;30.214;2022-09-28T00:39:03;12.95;;;7.25;;
74553;SDS011;63114;59.956;30.214;2022-09-28T00:41:30;14.30;;;7.50;;
74553;SDS011;63114;59.956;30.214;2022-09-28T00:47:15;13.38;;;8.15;;
74553;SDS011;63114;59.956;30.214;2022-09-28T00:49:43;10.35;;;6.95;;
74553;SDS011;63114;59.956;30.214;2022-09-28T00:52:13;12.35;;;7.55;;
74553;SDS011;63114;59.956;30.214;2022-09-28T00:54:44;11.27;;;8.00;;
74553;SDS011;63114;59.956;30.214;2022-09-28T00:57:11;10.57;;;7.15;;
74553;SDS011;63114;59.956;30.214;2022-09-28T00:59:37;12.07;;;6.82;;
74553;SDS011;63114;59.956;30.214;2022-09-28T01:02:03;10.13;;;7.35;;
74553;SDS011;63114;59.956;30.214;2022-09-28T01:04:29;13.90;;;7.80;;
74553;SDS011;63114;59.956;30.214;2022-09-28T01:06:56;12.00;;;8.07;;
74553;SDS011;63114;59.956;30.214;2022-09-28T01:09:22;11.43;;;7.78;;
74553;SDS011;63114;59.956;30.214;2022-09-28T01:11:49;13.27;;;7.82;;
74553;SDS011;63114;59.956;30.214;2022-09-28T01:14:15;14.82;;;9.05;;
74553;SDS011;63114;59.956;30.214;2022-09-28T01:19:53;14.38;;;9.43;;
74553;SDS011;63114;59.956;30.214;2022-09-28T01:27:42;15.32;;;9.25;;
74553;SDS011;63114;59.956;30.214;2022-09-28T01:30:16;14.05;;;8.68;;
74553;SDS011;63114;59.956;30.214;2022-09-28T01:32:46;14.60;;;9.23;;
74553;SDS011;63114;59.956;30.214;2022-09-28T01:35:33;12.90;;;9.15;;
74553;SDS011;63114;59.956;30.214;2022-09-28T01:38:07;13.10;;;8.65;;
74553;SDS011;63114;59.956;30.214;2022-09-28T01:40:42;12.32;;;8.00;;
74553;SDS011;63114;59.956;30.214;2022-09-28T01:43:10;15.25;;;8.90;;
74553;SDS011;63114;59.956;30.214;2022-09-28T01:45:44;12.57;;;8.50;;
74553;SDS011;63114;59.956;30.214;2022-09-28T01:48:12;12.60;;;7.45;;
74553;SDS011;63114;59.956;30.214;2022-09-28T01:50:42;15.85;;;8.52;;
74553;SDS011;63114;59.956;30.214;2022-09-28T01:53:12;12.48;;;8.23;;
74553;SDS011;63114;59.956;30.214;2022-09-28T01:55:47;10.35;;;7.15;;
74553;SDS011;63114;59.956;30.214;2022-09-28T02:01:05;14.73;;;7.50;;
74553;SDS011;63114;59.956;30.214;2022-09-28T02:03:37;12.88;;;7.25;;
74553;SDS011;63114;59.956;30.214;2022-09-28T02:06:08;11.02;;;7.30;;
74553;SDS011;63114;59.956;30.214;2022-09-28T02:09:02;13.50;;;7.53;;
74553;SDS011;63114;59.956;30.214;2022-09-28T02:11:40;12.45;;;6.50;;
74553;SDS011;63114;59.956;30.214;2022-09-28T02:14:12;10.88;;;6.68;;
74553;SDS011;63114;59.956;30.214;2022-09-28T02:16:48;11.23;;;6.45;;
74553;SDS011;63114;59.956;30.214;2022-09-28T02:19:23;11.45;;;6.22;;
74553;SDS011;63114;59.956;30.214;2022-09-28T02:24:26;12.52;;;6.43;;
74553;SDS011;63114;59.956;30.214;2022-09-28T02:27:02;12.30;;;6.43;;
74553;SDS011;63114;59.956;30.214;2022-09-28T02:29:53;11.38;;;6.03;;
74553;SDS011;63114;59.956;30.214;2022-09-28T02:32:19;13.80;;;6.57;;
74553;SDS011;63114;59.956;30.214;2022-09-28T02:34:45;9.38;;;5.65;;
74553;SDS011;63114;59.956;30.214;2022-09-28T02:37:11;9.15;;;5.38;;
74553;SDS011;63114;59.956;30.214;2022-09-28T02:39:37;9.55;;;5.68;;
74553;SDS011;63114;59.956;30.214;2022-09-28T02:50:10;12.07;;;6.75;;
74553;SDS011;63114;59.956;30.214;2022-09-28T02:58:07;9.80;;;5.85;;
74553;SDS011;63114;59.956;30.214;2022-09-28T03:03:45;11.13;;;6.22;;
74553;SDS011;63114;59.956;30.214;2022-09-28T03:06:19;8.70;;;6.03;;
74553;SDS011;63114;59.956;30.214;2022-09-28T03:11:28;9.57;;;5.60;;
74553;SDS011;63114;59.956;30.214;2022-09-28T03:13:58;8.48;;;5.55;;
74553;SDS011;63114;59.956;30.214;2022-09-28T03:16:33;10.60;;;6.15;;
74553;SDS011;63114;59.956;30.214;2022-09-28T03:18:58;10.25;;;6.43;;
74553;SDS011;63114;59.956;30.214;2022-09-28T03:21:24;11.10;;;6.28;;
74553;SDS011;63114;59.956;30.214;2022-09-28T03:23:50;8.25;;;5.63;;
74553;SDS011;63114;59.956;30.214;2022-09-28T03:26:15;8.15;;;6.13;;
74553;SDS011;63114;59.956;30.214;2022-09-28T03:28:42;9.88;;;6.13;;
74553;SDS011;63114;59.956;30.214;2022-09-28T03:31:12;9.77;;;5.68;;
74553;SDS011;63114;59.956;30.214;2022-09-28T03:33:38;10.30;;;6.57;;
74553;SDS011;63114;59.956;30.214;2022-09-28T03:36:04;9.80;;;6.55;;
74553;SDS011;63114;59.956;30.214;2022-09-28T03:38:30;9.57;;;6.03;;
74553;SDS011;63114;59.956;30.214;2022-09-28T03:40:58;9.55;;;5.97;;
74553;SDS011;63114;59.956;30.214;2022-09-28T03:43:25;10.93;;;6.10;;
74553;SDS011;63114;59.956;30.214;2022-09-28T03:45:55;10.40;;;5.57;;
74553;SDS011;63114;59.956;30.214;2022-09-28T03:48:23;12.18;;;6.82;;
74553;SDS011;63114;59.956;30.214;2022-09-28T03:50:54;10.02;;;6.18;;
74553;SDS011;63114;59.956;30.214;2022-09-28T03:53:21;12.52;;;7.32;;
74553;SDS011;63114;59.956;30.214;2022-09-28T03:55:48;11.65;;;6.10;;
74553;SDS011;63114;59.956;30.214;2022-09-28T03:58:15;9.70;;;6.25;;
74553;SDS011;63114;59.956;30.214;2022-09-28T04:00:41;12.43;;;6.43;;
74553;SDS011;63114;59.956;30.214;2022-09-28T04:03:07;16.95;;;7.18;;
74553;SDS011;63114;59.956;30.214;2022-09-28T04:05:33;10.82;;;6.15;;
74553;SDS011;63114;59.956;30.214;2022-09-28T04:07:59;11.23;;;6.07;;
74553;SDS011;63114;59.956;30.214;2022-09-28T04:10:25;10.05;;;5.78;;
74553;SDS011;63114;59.956;30.214;2022-09-28T04:12:55;12.43;;;6.20;;
74553;SDS011;63114;59.956;30.214;2022-09-28T04:15:22;12.95;;;6.20;;
74553;SDS011;63114;59.956;30.214;2022-09-28T04:17:48;12.32;;;6.40;;
74553;SDS011;63114;59.956;30.214;2022-09-28T04:20:31;10.73;;;6.05;;
74553;SDS011;63114;59.956;30.214;2022-09-28T04:23:01;10.35;;;6.47;;
74553;SDS011;63114;59.956;30.214;2022-09-28T04:25:27;14.65;;;6.60;;
74553;SDS011;63114;59.956;30.214;2022-09-28T04:27:54;11.50;;;5.65;;
74553;SDS011;63114;59.956;30.214;2022-09-28T04:30:38;14.07;;;5.75;;
74553;SDS011;63114;59.956;30.214;2022-09-28T04:33:04;12.20;;;6.15;;
74553;SDS011;63114;59.956;30.214;2022-09-28T04:35:30;14.32;;;6.40;;
74553;SDS011;63114;59.956;30.214;2022-09-28T04:37:56;10.35;;;5.43;;
74553;SDS011;63114;59.956;30.214;2022-09-28T04:40:22;9.05;;;4.95;;
74553;SDS011;63114;59.956;30.214;2022-09-28T04:42:54;11.02;;;5.35;;
74553;SDS011;63114;59.956;30.214;2022-09-28T04:45:21;8.40;;;5.25;;
74553;SDS011;63114;59.956;30.214;2022-09-28T04:47:49;11.02;;;5.18;;
74553;SDS011;63114;59.956;30.214;2022-09-28T04:50:23;7.78;;;4.93;;
74553;SDS011;63114;59.956;30.214;2022-09-28T04:53:04;7.60;;;4.72;;
74553;SDS011;63114;59.956;30.214;2022-09-28T04:55:30;10.82;;;5.15;;
74553;SDS011;63114;59.956;30.214;2022-09-28T04:57:57;11.25;;;5.40;;
74553;SDS011;63114;59.956;30.214;2022-09-28T05:00:28;11.23;;;5.03;;
74553;SDS011;63114;59.956;30.214;2022-09-28T05:03:17;11.40;;;4.70;;
74553;SDS011;63114;59.956;30.214;2022-09-28T05:06:12;10.82;;;4.95;;
74553;SDS011;63114;59.956;30.214;2022-09-28T05:08:42;10.50;;;4.30;;
74553;SDS011;63114;59.956;30.214;2022-09-28T05:11:11;9.18;;;4.38;;
74553;SDS011;63114;59.956;30.214;2022-09-28T05:13:39;7.55;;;3.58;;
74553;SDS011;63114;59.956;30.214;2022-09-28T05:16:06;8.35;;;3.88;;
74553;SDS011;63114;59.956;30.214;2022-09-28T05:18:41;8.50;;;3.88;;
74553;SDS011;63114;59.956;30.214;2022-09-28T05:21:10;5.22;;;3.72;;
74553;SDS011;63114;59.956;30.214;2022-09-28T05:23:38;5.72;;;3.58;;
74553;SDS011;63114;59.956;30.214;2022-09-28T05:26:04;5.55;;;3.75;;
74553;SDS011;63114;59.956;30.214;2022-09-28T05:28:32;6.13;;;3.60;;
74553;SDS011;63114;59.956;30.214;2022-09-28T05:31:27;4.88;;;3.70;;
74553;SDS011;63114;59.956;30.214;2022-09-28T05:34:04;6.75;;;3.97;;
74553;SDS011;63114;59.956;30.214;2022-09-28T05:36:30;7.15;;;3.47;;
74553;SDS011;63114;59.956;30.214;2022-09-28T05:38:57;8.45;;;3.20;;
74553;SDS011;63114;59.956;30.214;2022-09-28T05:41:23;7.28;;;3.80;;
74553;SDS011;63114;59.956;30.214;2022-09-28T05:43:48;7.93;;;3.13;;
74553;SDS011;63114;59.956;30.214;2022-09-28T05:46:16;6.30;;;3.58;;
74553;SDS011;63114;59.956;30.214;2022-09-28T05:48:43;5.63;;;3.33;;
74553;SDS011;63114;59.956;30.214;2022-09-28T05:51:08;8.43;;;3.60;;
74553;SDS011;63114;59.956;30.214;2022-09-28T05:53:34;4.35;;;2.72;;
74553;SDS011;63114;59.956;30.214;2022-09-28T05:56:00;4.93;;;3.10;;
74553;SDS011;63114;59.956;30.214;2022-09-28T05:58:29;5.65;;;2.88;;
74553;SDS011;63114;59.956;30.214;2022-09-28T06:00:56;5.97;;;2.63;;
74553;SDS011;63114;59.956;30.214;2022-09-28T06:03:22;7.65;;;2.75;;
74553;SDS011;63114;59.956;30.214;2022-09-28T06:05:48;7.32;;;2.78;;
74553;SDS011;63114;59.956;30.214;2022-09-28T06:08:14;5.10;;;2.50;;
74553;SDS011;63114;59.956;30.214;2022-09-28T06:10:44;5.47;;;2.55;;
74553;SDS011;63114;59.956;30.214;2022-09-28T06:13:10;5.95;;;2.63;;
74553;SDS011;63114;59.956;30.214;2022-09-28T06:15:37;7.85;;;2.60;;
74553;SDS011;63114;59.956;30.214;2022-09-28T06:18:09;8.40;;;2.88;;
74553;SDS011;63114;59.956;30.214;2022-09-28T06:20:41;4.30;;;2.50;;
74553;SDS011;63114;59.956;30.214;2022-09-28T06:23:12;4.43;;;2.40;;
74553;SDS011;63114;59.956;30.214;2022-09-28T06:25:38;5.82;;;2.22;;
74553;SDS011;63114;59.956;30.214;2022-09-28T06:28:11;7.47;;;3.17;;
74553;SDS011;63114;59.956;30.214;2022-09-28T06:30:38;5.55;;;2.70;;
74553;SDS011;63114;59.956;30.214;2022-09-28T06:33:11;5.95;;;2.50;;
74553;SDS011;63114;59.956;30.214;2022-09-28T06:35:39;5.38;;;2.55;;
74553;SDS011;63114;59.956;30.214;2022-09-28T06:38:05;5.55;;;2.15;;
74553;SDS011;63114;59.956;30.214;2022-09-28T06:40:32;4.97;;;2.30;;
74553;SDS011;63114;59.956;30.214;2022-09-28T06:45:54;7.60;;;2.70;;
74553;SDS011;63114;59.956;30.214;2022-09-28T06:48:39;4.85;;;2.85;;
74553;SDS011;63114;59.956;30.214;2022-09-28T06:51:08;4.72;;;2.50;;
74553;SDS011;63114;59.956;30.214;2022-09-28T06:53:55;7.80;;;2.78;;
74553;SDS011;63114;59.956;30.214;2022-09-28T06:56:47;5.88;;;2.55;;
74553;SDS011;63114;59.956;30.214;2022-09-28T06:59:13;5.68;;;2.38;;
74553;SDS011;63114;59.956;30.214;2022-09-28T07:01:39;4.53;;;2.35;;
74553;SDS011;63114;59.956;30.214;2022-09-28T07:04:28;4.57;;;2.17;;
74553;SDS011;63114;59.956;30.214;2022-09-28T07:07:13;4.63;;;2.00;;
74553;SDS011;63114;59.956;30.214;2022-09-28T07:10:04;4.85;;;1.77;;
74553;SDS011;63114;59.956;30.214;2022-09-28T07:12:44;3.08;;;1.75;;
74553;SDS011;63114;59.956;30.214;2022-09-28T07:18:10;3.50;;;1.85;;
74553;SDS011;63114;59.956;30.214;2022-09-28T07:20:38;4.65;;;2.42;;
74553;SDS011;63114;59.956;30.214;2022-09-28T07:23:04;7.28;;;2.20;;
74553;SDS011;63114;59.956;30.214;2022-09-28T07:25:52;4.40;;;2.40;;
74553;SDS011;63114;59.956;30.214;2022-09-28T07:28:28;5.10;;;1.98;;
74553;SDS011;63114;59.956;30.214;2022-09-28T07:31:18;3.85;;;2.03;;
74553;SDS011;63114;59.956;30.214;2022-09-28T07:34:04;4.88;;;1.90;;
74553;SDS011;63114;59.956;30.214;2022-09-28T07:36:51;5.13;;;1.70;;
74553;SDS011;63114;59.956;30.214;2022-09-28T07:39:21;3.40;;;1.75;;
74553;SDS011;63114;59.956;30.214;2022-09-28T07:41:47;5.68;;;1.80;;
74553;SDS011;63114;59.956;30.214;2022-09-28T07:44:13;3.53;;;1.60;;
74553;SDS011;63114;59.956;30.214;2022-09-28T07:46:39;2.95;;;1.60;;
74553;SDS011;63114;59.956;30.214;2022-09-28T07:49:15;3.25;;;1.58;;
74553;SDS011;63114;59.956;30.214;2022-09-28T07:52:12;5.28;;;1.70;;
74553;SDS011;63114;59.956;30.214;2022-09-28T07:54:57;4.57;;;1.65;;
74553;SDS011;63114;59.956;30.214;2022-09-28T07:57:37;5.93;;;1.90;;
74553;SDS011;63114;59.956;30.214;2022-09-28T08:00:27;2.38;;;1.50;;
74553;SDS011;63114;59.956;30.214;2022-09-28T08:02:54;3.53;;;1.40;;
74553;SDS011;63114;59.956;30.214;2022-09-28T08:05:22;5.32;;;2.15;;
74553;SDS011;63114;59.956;30.214;2022-09-28T08:07:47;3.60;;;1.40;;
74553;SDS011;63114;59.956;30.214;2022-09-28T08:10:14;3.65;;;1.17;;
74553;SDS011;63114;59.956;30.214;2022-09-28T08:12:59;4.87;;;1.60;;
74553;SDS011;63114;59.956;30.214;2022-09-28T08:15:54;3.25;;;1.27;;
74553;SDS011;63114;59.956;30.214;2022-09-28T08:18:42;3.92;;;1.25;;
74553;SDS011;63114;59.956;30.214;2022-09-28T08:21:08;3.05;;;1.23;;
74553;SDS011;63114;59.956;30.214;2022-09-28T08:23:53;3.43;;;1.50;;
74553;SDS011;63114;59.956;30.214;2022-09-28T08:26:19;2.75;;;1.63;;
74553;SDS011;63114;59.956;30.214;2022-09-28T08:28:45;2.30;;;1.40;;
74553;SDS011;63114;59.956;30.214;2022-09-28T08:31:40;3.40;;;1.90;;
74553;SDS011;63114;59.956;30.214;2022-09-28T08:34:11;4.80;;;1.63;;
74553;SDS011;63114;59.956;30.214;2022-09-28T08:36:56;4.13;;;1.80;;
74553;SDS011;63114;59.956;30.214;2022-09-28T08:39:40;3.50;;;1.70;;
74553;SDS011;63114;59.956;30.214;2022-09-28T08:42:33;3.35;;;1.92;;
74553;SDS011;63114;59.956;30.214;2022-09-28T08:45:28;3.15;;;1.90;;
74553;SDS011;63114;59.956;30.214;2022-09-28T08:48:22;3.47;;;1.85;;
74553;SDS011;63114;59.956;30.214;2022-09-28T08:51:26;3.30;;;1.85;;
74553;SDS011;63114;59.956;30.214;2022-09-28T08:54:39;3.92;;;1.90;;
74553;SDS011;63114;59.956;30.214;2022-09-28T08:59:56;6.63;;;2.10;;
74553;SDS011;63114;59.956;30.214;2022-09-28T09:02:36;3.72;;;2.10;;
74553;SDS011;63114;59.956;30.214;2022-09-28T09:05:15;8.10;;;2.72;;
74553;SDS011;63114;59.956;30.214;2022-09-28T09:10:56;3.72;;;2.30;;
74553;SDS011;63114;59.956;30.214;2022-09-28T09:16:20;3.67;;;2.15;;
74553;SDS011;63114;59.956;30.214;2022-09-28T09:19:16;2.47;;;1.55;;
74553;SDS011;63114;59.956;30.214;2022-09-28T09:22:43;3.63;;;1.60;;
74553;SDS011;63114;59.956;30.214;2022-09-28T09:30:19;5.07;;;1.60;;
74553;SDS011;63114;59.956;30.214;2022-09-28T09:45:52;2.03;;;1.25;;
74553;SDS011;63114;59.956;30.214;2022-09-28T09:51:47;3.72;;;1.42;;
74553;SDS011;63114;59.956;30.214;2022-09-28T09:54:38;2.33;;;1.50;;
74553;SDS011;63114;59.956;30.214;2022-09-28T09:59:52;4.85;;;1.58;;
74553;SDS011;63114;59.956;30.214;2022-09-28T10:02:29;2.67;;;1.50;;
74553;SDS011;63114;59.956;30.214;2022-09-28T10:05:06;3.22;;;1.80;;
74553;SDS011;63114;59.956;30.214;2022-09-28T10:10:14;2.22;;;1.45;;
74553;SDS011;63114;59.956;30.214;2022-09-28T10:12:47;2.88;;;1.30;;
74553;SDS011;63114;59.956;30.214;2022-09-28T10:15:15;2.72;;;1.63;;
74553;SDS011;63114;59.956;30.214;2022-09-28T10:18:09;1.98;;;1.48;;
74553;SDS011;63114;59.956;30.214;2022-09-28T10:20:55;5.05;;;1.73;;
74553;SDS011;63114;59.956;30.214;2022-09-28T10:23:48;4.07;;;1.52;;
74553;SDS011;63114;59.956;30.214;2022-09-28T10:26:22;2.25;;;1.30;;
74553;SDS011;63114;59.956;30.214;2022-09-28T10:28:57;5.88;;;1.92;;
74553;SDS011;63114;59.956;30.214;2022-09-28T10:31:33;2.60;;;1.20;;
74553;SDS011;63114;59.956;30.214;2022-09-28T10:34:17;1.92;;;1.15;;
74553;SDS011;63114;59.956;30.214;2022-09-28T10:36:51;3.85;;;1.33;;
74553;SDS011;63114;59.956;30.214;2022-09-28T10:39:31;2.85;;;1.33;;
74553;SDS011;63114;59.956;30.214;2022-09-28T10:42:32;3.67;;;1.45;;
74553;SDS011;63114;59.956;30.214;2022-09-28T10:47:47;2.47;;;1.58;;
74553;SDS011;63114;59.956;30.214;2022-09-28T10:50:19;2.58;;;1.70;;
74553;SDS011;63114;59.956;30.214;2022-09-28T10:52:48;2.63;;;1.55;;
74553;SDS011;63114;59.956;30.214;2022-09-28T10:55:37;3.13;;;1.60;;
74553;SDS011;63114;59.956;30.214;2022-09-28T10:58:21;2.78;;;1.90;;
74553;SDS011;63114;59.956;30.214;2022-09-28T11:00:50;2.97;;;1.85;;
74553;SDS011;63114;59.956;30.214;2022-09-28T11:03:21;3.33;;;1.80;;
74553;SDS011;63114;59.956;30.214;2022-09-28T11:05:52;2.10;;;1.40;;
74553;SDS011;63114;59.956;30.214;2022-09-28T11:08:26;5.70;;;2.15;;
74553;SDS011;63114;59.956;30.214;2022-09-28T11:11:03;4.75;;;1.65;;
74553;SDS011;63114;59.956;30.214;2022-09-28T11:13:43;3.35;;;1.73;;
74553;SDS011;63114;59.956;30.214;2022-09-28T11:16:18;5.47;;;2.35;;
74553;SDS011;63114;59.956;30.214;2022-09-28T11:18:45;4.25;;;2.10;;
74553;SDS011;63114;59.956;30.214;2022-09-28T11:21:21;3.22;;;1.55;;
74553;SDS011;63114;59.956;30.214;2022-09-28T11:23:58;3.28;;;1.60;;
74553;SDS011;63114;59.956;30.214;2022-09-28T11:26:31;2.25;;;1.40;;
74553;SDS011;63114;59.956;30.214;2022-09-28T11:29:03;2.05;;;1.50;;
74553;SDS011;63114;59.956;30.214;2022-09-28T11:31:40;2.65;;;1.40;;
74553;SDS011;63114;59.956;30.214;2022-09-28T11:34:18;4.22;;;2.33;;
74553;SDS011;63114;59.956;30.214;2022-09-28T11:37:23;4.45;;;1.80;;
74553;SDS011;63114;59.956;30.214;2022-09-28T11:40:13;3.67;;;1.53;;
74553;SDS011;63114;59.956;30.214;2022-09-28T11:48:01;4.57;;;1.35;;
74553;SDS011;63114;59.956;30.214;2022-09-28T11:54:11;5.18;;;1.40;;
74553;SDS011;63114;59.956;30.214;2022-09-28T11:58:48;3.83;;;1.77;;
74553;SDS011;63114;59.956;30.214;2022-09-28T12:01:21;2.70;;;1.50;;
74553;SDS011;63114;59.956;30.214;2022-09-28T12:04:25;7.57;;;2.00;;
74553;SDS011;63114;59.956;30.214;2022-09-28T12:09:39;2.15;;;1.30;;
74553;SDS011;63114;59.956;30.214;2022-09-28T12:13:28;2.45;;;1.55;;
74553;SDS011;63114;59.956;30.214;2022-09-28T12:15:36;2.83;;;1.20;;
74553;SDS011;63114;59.956;30.214;2022-09-28T12:18:07;3.22;;;1.33;;
74553;SDS011;63114;59.956;30.214;2022-09-28T12:20:39;2.22;;;1.17;;
74553;SDS011;63114;59.956;30.214;2022-09-28T12:23:12;2.50;;;1.10;;
74553;SDS011;63114;59.956;30.214;2022-09-28T12:25:44;3.70;;;1.23;;
74553;SDS011;63114;59.956;30.214;2022-09-28T12:28:17;4.68;;;1.35;;
74553;SDS011;63114;59.956;30.214;2022-09-28T12:30:50;2.83;;;1.45;;
74553;SDS011;63114;59.956;30.214;2022-09-28T12:33:16;3.75;;;1.63;;
74553;SDS011;63114;59.956;30.214;2022-09-28T12:54:35;2.75;;;1.50;;
74553;SDS011;63114;59.956;30.214;2022-09-28T13:21:42;5.10;;;2.40;;
74553;SDS011;63114;59.956;30.214;2022-09-28T13:24:17;4.88;;;2.22;;
74553;SDS011;63114;59.956;30.214;2022-09-28T13:26:49;5.93;;;3.03;;
74553;SDS011;63114;59.956;30.214;2022-09-28T13:29:16;4.03;;;2.33;;
74553;SDS011;63114;59.956;30.214;2022-09-28T13:31:44;5.47;;;3.65;;
74553;SDS011;63114;59.956;30.214;2022-09-28T13:34:14;8.40;;;2.45;;
74553;SDS011;63114;59.956;30.214;2022-09-28T13:39:36;5.75;;;2.72;;
74553;SDS011;63114;59.956;30.214;2022-09-28T13:53:10;4.32;;;3.15;;
74553;SDS011;63114;59.956;30.214;2022-09-28T13:59:00;4.50;;;2.90;;
74553;SDS011;63114;59.956;30.214;2022-09-28T14:01:40;6.22;;;3.28;;
74553;SDS011;63114;59.956;30.214;2022-09-28T14:04:19;4.65;;;3.20;;
74553;SDS011;63114;59.956;30.214;2022-09-28T14:06:56;3.75;;;2.70;;
74553;SDS011;63114;59.956;30.214;2022-09-28T14:09:41;4.03;;;2.90;;
74553;SDS011;63114;59.956;30.214;2022-09-28T14:12:27;5.15;;;3.30;;
74553;SDS011;63114;59.956;30.214;2022-09-28T14:14:54;5.15;;;3.40;;
74553;SDS011;63114;59.956;30.214;2022-09-28T14:19:51;7.75;;;3.97;;
74553;SDS011;63114;59.956;30.214;2022-09-28T14:25:23;6.32;;;3.90;;
74553;SDS011;63114;59.956;30.214;2022-09-28T14:36:04;7.47;;;4.10;;
74553;SDS011;63114;59.956;30.214;2022-09-28T14:38:32;6.15;;;3.80;;
74553;SDS011;63114;59.956;30.214;2022-09-28T14:44:08;5.05;;;3.05;;
74553;SDS011;63114;59.956;30.214;2022-09-28T14:49:11;5.25;;;3.30;;
74553;SDS011;63114;59.956;30.214;2022-09-28T14:52:00;5.07;;;3.10;;
74553;SDS011;63114;59.956;30.214;2022-09-28T14:57:19;4.45;;;3.28;;
74553;SDS011;63114;59.956;30.214;2022-09-28T14:59:47;3.90;;;2.75;;
74553;SDS011;63114;59.956;30.214;2022-09-28T15:02:18;5.55;;;3.33;;
74553;SDS011;63114;59.956;30.214;2022-09-28T15:07:26;6.40;;;3.42;;
74553;SDS011;63114;59.956;30.214;2022-09-28T15:13:01;5.78;;;2.95;;
74553;SDS011;63114;59.956;30.214;2022-09-28T15:15:38;4.38;;;3.40;;
74553;SDS011;63114;59.956;30.214;2022-09-28T15:20:48;6.20;;;2.95;;
74553;SDS011;63114;59.956;30.214;2022-09-28T15:26:18;3.58;;;2.67;;
74553;SDS011;63114;59.956;30.214;2022-09-28T15:28:47;4.82;;;3.08;;
74553;SDS011;63114;59.956;30.214;2022-09-28T15:31:16;4.60;;;2.95;;
74553;SDS011;63114;59.956;30.214;2022-09-28T15:33:43;6.32;;;3.50;;
74553;SDS011;63114;59.956;30.214;2022-09-28T15:36:28;5.68;;;3.35;;
74553;SDS011;63114;59.956;30.214;2022-09-28T15:41:58;5.70;;;3.80;;
74553;SDS011;63114;59.956;30.214;2022-09-28T15:44:31;4.97;;;3.00;;
74553;SDS011;63114;59.956;30.214;2022-09-28T15:47:12;4.82;;;3.70;;
74553;SDS011;63114;59.956;30.214;2022-09-28T15:49:52;5.85;;;3.83;;
74553;SDS011;63114;59.956;30.214;2022-09-28T15:58:22;5.47;;;4.18;;
74553;SDS011;63114;59.956;30.214;2022-09-28T16:00:49;4.57;;;3.08;;
74553;SDS011;63114;59.956;30.214;2022-09-28T16:08:14;5.78;;;3.50;;
74553;SDS011;63114;59.956;30.214;2022-09-28T16:10:54;4.32;;;2.78;;
74553;SDS011;63114;59.956;30.214;2022-09-28T16:16:37;4.05;;;2.97;;
74553;SDS011;63114;59.956;30.214;2022-09-28T16:19:18;5.38;;;3.22;;
74553;SDS011;63114;59.956;30.214;2022-09-28T16:22:18;4.90;;;3.53;;
74553;SDS011;63114;59.956;30.214;2022-09-28T16:24:53;5.07;;;3.17;;
74553;SDS011;63114;59.956;30.214;2022-09-28T16:27:45;4.55;;;3.45;;
74553;SDS011;63114;59.956;30.214;2022-09-28T16:30:19;5.57;;;3.95;;
74553;SDS011;63114;59.956;30.214;2022-09-28T16:35:53;5.72;;;3.72;;
74553;SDS011;63114;59.956;30.214;2022-09-28T16:38:45;5.32;;;3.80;;
74553;SDS011;63114;59.956;30.214;2022-09-28T16:41:12;5.25;;;3.78;;
74553;SDS011;63114;59.956;30.214;2022-09-28T16:43:39;6.47;;;4.07;;
74553;SDS011;63114;59.956;30.214;2022-09-28T16:46:08;5.45;;;4.38;;
74553;SDS011;63114;59.956;30.214;2022-09-28T16:51:21;6.05;;;3.58;;
74553;SDS011;63114;59.956;30.214;2022-09-28T16:57:22;6.65;;;3.83;;
74553;SDS011;63114;59.956;30.214;2022-09-28T16:59:47;5.50;;;3.85;;
74553;SDS011;63114;59.956;30.214;2022-09-28T17:02:14;5.88;;;3.70;;
74553;SDS011;63114;59.956;30.214;2022-09-28T17:04:42;7.53;;;3.80;;
74553;SDS011;63114;59.956;30.214;2022-09-28T17:07:08;5.20;;;3.90;;
74553;SDS011;63114;59.956;30.214;2022-09-28T17:09:36;7.55;;;3.30;;
74553;SDS011;63114;59.956;30.214;2022-09-28T17:14:53;4.50;;;3.47;;
74553;SDS011;63114;59.956;30.214;2022-09-28T17:17:19;4.80;;;3.53;;
74553;SDS011;63114;59.956;30.214;2022-09-28T17:19:46;4.95;;;2.97;;
74553;SDS011;63114;59.956;30.214;2022-09-28T17:25:04;5.70;;;3.55;;
74553;SDS011;63114;59.956;30.214;2022-09-28T17:27:30;4.13;;;2.83;;
74553;SDS011;63114;59.956;30.214;2022-09-28T17:32:48;4.35;;;3.08;;
74553;SDS011;63114;59.956;30.214;2022-09-28T17:35:15;4.60;;;2.80;;
74553;SDS011;63114;59.956;30.214;2022-09-28T17:37:42;4.40;;;3.70;;
74553;SDS011;63114;59.956;30.214;2022-09-28T17:42:59;4.32;;;2.80;;
74553;SDS011;63114;59.956;30.214;2022-09-28T17:45:25;5.45;;;3.55;;
74553;SDS011;63114;59.956;30.214;2022-09-28T17:47:53;4.20;;;3.00;;
74553;SDS011;63114;59.956;30.214;2022-09-28T17:50:21;4.00;;;2.97;;
74553;SDS011;63114;59.956;30.214;2022-09-28T17:52:54;3.60;;;2.67;;
74553;SDS011;63114;59.956;30.214;2022-09-28T17:55:23;3.70;;;2.85;;
74553;SDS011;63114;59.956;30.214;2022-09-28T17:57:53;5.30;;;2.80;;
74553;SDS011;63114;59.956;30.214;2022-09-28T18:00:19;4.63;;;2.63;;
74553;SDS011;63114;59.956;30.214;2022-09-28T18:02:45;4.80;;;2.60;;
74553;SDS011;63114;59.956;30.214;2022-09-28T18:05:12;3.22;;;2.55;;
74553;SDS011;63114;59.956;30.214;2022-09-28T18:07:40;3.47;;;2.30;;
74553;SDS011;63114;59.956;30.214;2022-09-28T18:10:09;3.55;;;2.50;;
74553;SDS011;63114;59.956;30.214;2022-09-28T18:18:47;3.13;;;2.00;;
74553;SDS011;63114;59.956;30.214;2022-09-28T18:21:13;3.15;;;1.80;;
74553;SDS011;63114;59.956;30.214;2022-09-28T18:24:04;3.78;;;2.30;;
74553;SDS011;63114;59.956;30.214;2022-09-28T18:26:30;3.75;;;2.20;;
74553;SDS011;63114;59.956;30.214;2022-09-28T18:28:55;4.45;;;2.60;;
74553;SDS011;63114;59.956;30.214;2022-09-28T18:31:21;5.00;;;2.40;;
74553;SDS011;63114;59.956;30.214;2022-09-28T18:33:47;5.28;;;2.47;;
74553;SDS011;63114;59.956;30.214;2022-09-28T18:36:13;3.00;;;2.08;;
74553;SDS011;63114;59.956;30.214;2022-09-28T18:38:39;3.78;;;2.30;;
74553;SDS011;63114;59.956;30.214;2022-09-28T18:41:05;5.40;;;2.33;;
74553;SDS011;63114;59.956;30.214;2022-09-28T18:43:35;4.88;;;2.20;;
74553;SDS011;63114;59.956;30.214;2022-09-28T18:51:45;5.20;;;2.50;;
74553;SDS011;63114;59.956;30.214;2022-09-28T18:57:04;4.65;;;2.20;;
74553;SDS011;63114;59.956;30.214;2022-09-28T19:02:21;4.53;;;2.00;;
74553;SDS011;63114;59.956;30.214;2022-09-28T19:04:48;4.28;;;2.05;;
74553;SDS011;63114;59.956;30.214;2022-09-28T19:12:55;3.00;;;1.67;;
74553;SDS011;63114;59.956;30.214;2022-09-28T19:21:30;3.17;;;1.60;;
74553;SDS011;63114;59.956;30.214;2022-09-28T19:23:59;2.63;;;1.50;;
74553;SDS011;63114;59.956;30.214;2022-09-28T19:26:25;2.35;;;1.38;;